Monticello, AR

1:53 PM CDT on July 29, 2014 (GMT -0500)
RAWS UAM AR US (MAMOA4) Elev 183 ft | 33.59 °N, 91.81 °W | Change Station

Current weather conditions updated 53 minutes ago

Clear
Clear
84 °F
Feels Like 86 °F
N
7
Wind Variable Wind from NE
Gusts 16.0 mph

Today is forecast to be Cooler than yesterday.

Today
High -- | Low -- °F
--% Chance of Precip.
Yesterday
High -- | Low -- °F
Precip. -- in
6:17 AM 8:09 PM
Waxing Crescent, 7% visible
Pressure 30.11 in
Visibility 10.0 miles
Clouds Clear
Heat Index 86 °F
Dew Point 66 °F
Humidity 54%
Rainfall 0.00 in
Snow Depth Not available.
UV 12 out of 12
Pollen 4.70 out of 12
Air Quality Not available.
Flu Activity Not available.
METAR KLLQ 291753Z AUTO 03008G16KT 10SM CLR 28/17 A3012 RMK AO2 SLP196 T02830172 10289 20206 58003

More Conditions Fewer Conditions

Pressure 30.11 in
Visibility 10.0 miles
Clouds Clear
Heat Index 86 °F
Dew Point 66 °F
Humidity 54%
Rainfall 0.00 in
Snow Depth Not available.
UV 12 out of 12
Pollen 4.70 out of 12
Air Quality Not available.
Flu Activity Not available.
METAR KLLQ 291753Z AUTO 03008G16KT 10SM CLR 28/17 A3012 RMK AO2 SLP196 T02830172 10289 20206 58003

More Conditions Fewer Conditions

10-Day Weather Forecast

Almanac

Astronomy

Jul. 29, 2014 Rise Set
Actual Time 6:17 AM CDT 8:09 PM CDT
Civil Twilight 5:49 AM CDT 8:37 PM CDT
Nautical Twilight 5:16 AM CDT 9:10 PM CDT
Astronomical Twilight 4:41 AM CDT 9:45 PM CDT
Moon 8:44 AM CDT 9:33 PM CDT
Length of Visible Light 14h 47m
Length of Day
13h 52m
Tomorrow will be 1m 29s shorter.
Waxing Crescent, 7% of the Moon is Illuminated
Today
Waxing Crescent
Aug 3
First Quarter
Aug 10
Full
Aug 17
Last Quarter
Aug 25
New

Today's Extremes

State Highs State Lows

Community

WunderPhotos

Upload Photos

1,738,825 photos uploaded!

WunderBlogs® & News

By Dr. Jeff Masters
Director of Meteorology, Weather Underground
By Kari Strenfel
Meteorologist, Weather Underground
By Christopher C. Burt
Weather Historian, Weather Underground
July 29, 2014
July 29, 2014
July 29, 2014

Nearby

Snow Depth

Station Depth Elevation
No new snow has been reported.

Earthquake Activity

City Distance Mag. Time & Date
No recent earthquake activity has been reported nearby.
Minimum magnitude displayed is 2.5.

Coastal Water Temperatures

Place Temperature
No Stations Reporting

Nearby Weather Stations

Station Location Temp. Heat Index Dew Point Humidity Wind Precip. Elev Updated Type
RAWS UAM AR, Monticello, AR 84 °F 86 °F 66 °F 54% NE  at  7 mph 0.00 in / hr 183 ft 1:00 PM CDT MADIS
Hwy 172, Monticello, AR 84.9 °F 83 °F 50 °F 30% South  at  0.0 mph 0.00 in / hr 246 ft 1:44 PM CDT Normal
MesoWest WNCSTR , Winchester, AR 83 °F 81 °F - - North  at  - 0.00 in / hr 162 ft 10:05 AM CDT MADIS
MesoWest DERMOT , Dermott, AR 79 °F 77 °F - - North  at  - 0.00 in / hr 143 ft 10:35 AM CDT MADIS

Show More Stations Show Fewer Stations